createdAt,value
2023-04-29T00:01:25.935Z,17.48
2023-04-29T00:03:53.779Z,16.15
2023-04-29T00:06:21.532Z,17.55
2023-04-29T00:08:48.550Z,16.75
2023-04-29T00:11:15.617Z,16.05
2023-04-29T00:13:42.922Z,16.63
2023-04-29T00:16:13.862Z,17.88
2023-04-29T00:18:40.824Z,18.52
2023-04-29T00:21:07.753Z,17.20
2023-04-29T00:23:35.371Z,17.60
2023-04-29T00:26:02.437Z,15.68
2023-04-29T00:28:29.538Z,18.45
2023-04-29T00:30:56.573Z,17.83
2023-04-29T00:33:23.903Z,17.98
2023-04-29T00:35:51.073Z,17.38
2023-04-29T00:38:18.286Z,18.60
2023-04-29T00:40:45.501Z,20.00
2023-04-29T00:43:12.614Z,18.85
2023-04-29T00:45:39.808Z,18.85
2023-04-29T00:48:07.918Z,18.38
2023-04-29T00:50:36.738Z,19.42
2023-04-29T00:53:04.342Z,19.23
2023-04-29T00:55:32.995Z,20.80
2023-04-29T00:58:00.749Z,20.15
2023-04-29T01:00:28.590Z,21.60
2023-04-29T01:02:57.056Z,17.17
2023-04-29T01:05:25.079Z,17.92
2023-04-29T01:08:17.074Z,19.90
2023-04-29T01:11:08.824Z,19.52
2023-04-29T01:13:51.116Z,18.75
2023-04-29T01:16:29.824Z,18.42
2023-04-29T01:19:07.490Z,18.02
2023-04-29T01:21:48.728Z,17.95
2023-04-29T01:24:16.749Z,18.25
2023-04-29T01:26:57.278Z,18.13
2023-04-29T01:30:09.053Z,16.95
2023-04-29T01:33:25.584Z,16.48
2023-04-29T01:36:22.345Z,16.13
2023-04-29T01:38:54.991Z,16.13
2023-04-29T01:41:38.578Z,15.70
2023-04-29T01:44:25.531Z,18.23
2023-04-29T01:46:54.489Z,15.85
2023-04-29T01:49:27.704Z,16.17
2023-04-29T01:51:56.081Z,16.02
2023-04-29T01:54:23.656Z,16.60
2023-04-29T01:56:52.060Z,15.00
2023-04-29T01:59:27.919Z,14.05
2023-04-29T02:02:07.765Z,14.07
2023-04-29T02:04:38.774Z,13.68
2023-04-29T02:07:05.788Z,15.40
2023-04-29T02:09:32.955Z,13.63
2023-04-29T02:12:07.742Z,13.30
2023-04-29T02:14:37.472Z,12.30
2023-04-29T02:17:04.994Z,11.40
2023-04-29T02:19:32.218Z,13.23
2023-04-29T02:21:59.302Z,12.52
2023-04-29T02:24:26.932Z,11.57
2023-04-29T02:26:54.039Z,13.40
2023-04-29T02:29:21.055Z,12.15
2023-04-29T02:31:48.960Z,11.55
2023-04-29T02:34:16.586Z,12.57
2023-04-29T02:36:43.726Z,13.93
2023-04-29T02:39:10.962Z,12.77
2023-04-29T02:41:37.976Z,11.57
2023-04-29T02:44:04.942Z,11.13
2023-04-29T02:46:34.575Z,11.90
2023-04-29T02:49:02.005Z,12.35
2023-04-29T02:51:29.119Z,10.60
2023-04-29T02:53:56.311Z,12.07
2023-04-29T02:56:23.462Z,12.43
2023-04-29T02:58:50.552Z,13.32
2023-04-29T03:01:17.622Z,13.70
2023-04-29T03:03:44.852Z,12.45
2023-04-29T03:06:12.017Z,11.63
2023-04-29T03:08:38.941Z,13.48
2023-04-29T03:11:06.672Z,12.65
2023-04-29T03:13:33.725Z,14.30
2023-04-29T03:16:01.186Z,13.15
2023-04-29T03:18:28.372Z,13.43
2023-04-29T03:20:55.299Z,13.02
2023-04-29T03:23:22.514Z,13.90
2023-04-29T03:25:49.990Z,13.25
2023-04-29T03:28:17.021Z,13.15
2023-04-29T03:30:43.967Z,14.75
2023-04-29T03:33:11.004Z,13.80
2023-04-29T03:35:38.264Z,11.90
2023-04-29T03:38:24.574Z,12.03
2023-04-29T03:40:52.233Z,12.63
2023-04-29T03:43:19.231Z,13.23
2023-04-29T03:45:46.309Z,13.65
2023-04-29T03:48:16.913Z,13.57
2023-04-29T03:50:44.063Z,13.45
2023-04-29T03:53:11.937Z,12.32
2023-04-29T03:55:39.732Z,12.73
2023-04-29T03:58:06.976Z,14.30
2023-04-29T04:00:34.790Z,13.82
2023-04-29T04:03:05.994Z,14.82
2023-04-29T04:05:35.243Z,13.27
2023-04-29T04:08:08.415Z,13.85
2023-04-29T04:10:52.500Z,15.93
2023-04-29T04:13:45.611Z,14.63
2023-04-29T04:16:12.986Z,15.93
2023-04-29T04:18:40.393Z,14.45
2023-04-29T04:21:11.583Z,13.73
2023-04-29T04:23:41.223Z,15.60
2023-04-29T04:26:10.579Z,15.65
2023-04-29T04:29:00.825Z,14.38
2023-04-29T04:31:54.418Z,16.00
2023-04-29T04:34:22.449Z,14.63
2023-04-29T04:36:52.535Z,14.88
2023-04-29T04:39:19.832Z,15.05
2023-04-29T04:41:47.469Z,15.73
2023-04-29T04:44:14.799Z,16.52
2023-04-29T04:46:52.312Z,15.65
2023-04-29T04:49:34.672Z,14.75
2023-04-29T04:52:02.115Z,14.18
2023-04-29T04:54:29.342Z,15.88
2023-04-29T04:57:06.279Z,15.18
2023-04-29T04:59:34.442Z,14.32
2023-04-29T05:02:01.816Z,13.48
2023-04-29T05:04:29.594Z,15.63
2023-04-29T05:06:57.014Z,14.60
2023-04-29T05:09:29.338Z,14.82
2023-04-29T05:11:56.555Z,14.50
2023-04-29T05:14:24.455Z,14.50
2023-04-29T05:16:53.029Z,13.57
2023-04-29T05:19:20.791Z,13.75
2023-04-29T05:21:47.913Z,14.05
2023-04-29T05:24:15.669Z,13.38
2023-04-29T05:26:44.192Z,14.30
2023-04-29T05:29:12.297Z,13.73
2023-04-29T05:32:00.329Z,14.27
2023-04-29T05:34:27.611Z,14.40
2023-04-29T05:36:54.758Z,16.45
2023-04-29T05:39:23.178Z,14.52
2023-04-29T05:42:03.379Z,13.80
2023-04-29T05:44:37.705Z,15.40
2023-04-29T05:47:06.444Z,14.48
2023-04-29T05:49:33.940Z,15.40
2023-04-29T05:52:06.284Z,14.98
2023-04-29T05:54:38.810Z,13.25
2023-04-29T05:57:07.223Z,15.25
2023-04-29T05:59:34.884Z,15.52
2023-04-29T06:02:07.162Z,14.90
2023-04-29T06:04:35.909Z,15.70
2023-04-29T06:07:20.525Z,14.93
2023-04-29T06:10:13.394Z,15.13
2023-04-29T06:12:43.007Z,14.43
2023-04-29T06:15:10.758Z,13.60
2023-04-29T06:17:38.302Z,15.07
2023-04-29T06:20:06.699Z,14.80
2023-04-29T06:22:34.021Z,13.48
2023-04-29T06:25:01.133Z,15.25
2023-04-29T06:27:49.395Z,14.88
2023-04-29T06:30:19.059Z,14.23
2023-04-29T06:32:46.345Z,14.02
2023-04-29T06:35:13.564Z,14.55
2023-04-29T06:37:59.142Z,14.10
2023-04-29T06:40:49.413Z,14.05
2023-04-29T06:43:31.595Z,13.10
2023-04-29T06:46:05.572Z,12.13
2023-04-29T06:48:39.312Z,13.98
2023-04-29T06:51:06.758Z,13.30
2023-04-29T06:53:37.976Z,12.13
2023-04-29T06:56:06.911Z,12.90
2023-04-29T06:58:34.134Z,12.95
2023-04-29T07:01:03.523Z,12.50
2023-04-29T07:03:31.234Z,11.90
2023-04-29T07:05:58.597Z,11.18
2023-04-29T07:08:25.628Z,11.25
2023-04-29T07:10:58.234Z,12.65
2023-04-29T07:13:25.758Z,12.10
2023-04-29T07:15:53.089Z,10.82
2023-04-29T07:18:20.170Z,10.32
2023-04-29T07:20:48.060Z,11.45
2023-04-29T07:23:15.653Z,9.68
2023-04-29T07:25:42.778Z,10.35
2023-04-29T07:28:09.960Z,11.57
2023-04-29T07:30:37.821Z,13.20
2023-04-29T07:33:05.396Z,10.20
2023-04-29T07:35:33.426Z,11.13
2023-04-29T07:38:01.934Z,9.73
2023-04-29T07:40:31.107Z,11.23
2023-04-29T07:42:58.964Z,10.68
2023-04-29T07:45:26.197Z,10.50
2023-04-29T07:47:53.315Z,10.68
2023-04-29T07:50:20.898Z,9.95
2023-04-29T07:52:47.859Z,11.60
2023-04-29T07:55:17.027Z,9.57
2023-04-29T07:57:44.042Z,10.90
2023-04-29T08:00:12.086Z,10.68
2023-04-29T08:02:44.019Z,10.48
2023-04-29T08:05:13.876Z,9.98
2023-04-29T08:07:41.132Z,10.63
2023-04-29T08:10:09.222Z,9.45
2023-04-29T08:12:37.617Z,10.00
2023-04-29T08:15:07.103Z,10.15
2023-04-29T08:17:35.465Z,10.77
2023-04-29T08:20:03.314Z,11.77
2023-04-29T08:22:30.714Z,10.80
2023-04-29T08:24:57.799Z,9.80
2023-04-29T08:27:24.876Z,9.23
2023-04-29T08:29:51.868Z,9.88
2023-04-29T08:32:18.899Z,10.27
2023-04-29T08:34:46.016Z,11.10
2023-04-29T08:37:13.206Z,9.93
2023-04-29T08:39:40.259Z,9.93
2023-04-29T08:42:11.256Z,9.55
2023-04-29T08:44:41.323Z,9.60
2023-04-29T08:47:09.394Z,9.43
2023-04-29T08:49:38.172Z,8.93
2023-04-29T08:52:06.299Z,9.00
2023-04-29T08:54:33.683Z,9.00
2023-04-29T08:57:02.823Z,8.90
2023-04-29T08:59:30.710Z,8.82
2023-04-29T09:01:59.048Z,8.48
2023-04-29T09:04:32.188Z,8.55
2023-04-29T09:07:00.296Z,8.05
2023-04-29T09:09:27.955Z,9.85
2023-04-29T09:11:56.076Z,7.43
2023-04-29T09:14:24.541Z,8.02
2023-04-29T09:16:51.877Z,8.23
2023-04-29T09:19:34.162Z,7.55
2023-04-29T09:22:03.336Z,8.27
2023-04-29T09:24:31.884Z,7.55
2023-04-29T09:27:00.330Z,7.30
2023-04-29T09:29:27.373Z,7.22
2023-04-29T09:31:54.494Z,7.55
2023-04-29T09:34:37.354Z,6.90
2023-04-29T09:37:04.469Z,6.68
2023-04-29T09:39:39.988Z,6.63
2023-04-29T09:42:09.954Z,6.47
2023-04-29T09:44:37.202Z,6.85
2023-04-29T09:47:09.590Z,6.15
2023-04-29T09:49:45.370Z,6.95
2023-04-29T09:52:16.531Z,6.95
2023-04-29T09:54:44.612Z,6.68
2023-04-29T09:57:15.675Z,6.85
2023-04-29T09:59:43.933Z,7.05
2023-04-29T10:02:15.780Z,7.22
2023-04-29T10:04:46.657Z,7.05
2023-04-29T10:07:19.135Z,5.20
2023-04-29T10:09:48.122Z,5.82
2023-04-29T10:12:21.060Z,5.50
2023-04-29T10:15:00.613Z,5.78
2023-04-29T10:17:45.174Z,5.78
2023-04-29T10:20:18.213Z,5.43
2023-04-29T10:22:50.380Z,5.20
2023-04-29T10:25:22.943Z,4.60
2023-04-29T10:27:53.582Z,4.78
2023-04-29T10:30:22.002Z,5.03
2023-04-29T10:32:52.716Z,5.25
2023-04-29T10:35:25.848Z,4.90
2023-04-29T10:37:54.325Z,4.85
2023-04-29T10:40:40.832Z,4.82
2023-04-29T10:43:08.404Z,5.03
2023-04-29T10:45:36.328Z,3.97
2023-04-29T10:48:05.968Z,5.05
2023-04-29T10:50:35.127Z,5.05
2023-04-29T10:53:05.845Z,4.53
2023-04-29T10:55:37.859Z,4.72
2023-04-29T10:58:06.076Z,4.95
2023-04-29T11:00:35.668Z,5.18
2023-04-29T11:03:06.570Z,5.60
2023-04-29T11:05:37.684Z,4.53
2023-04-29T11:08:16.401Z,5.90
2023-04-29T11:10:44.061Z,4.93
2023-04-29T11:13:28.102Z,4.80
2023-04-29T11:16:12.000Z,4.60
2023-04-29T11:19:08.810Z,5.20
2023-04-29T11:21:37.285Z,4.20
2023-04-29T11:24:06.581Z,3.90
2023-04-29T11:26:37.522Z,2.53
2023-04-29T11:29:12.038Z,3.83
2023-04-29T11:31:39.714Z,3.17
2023-04-29T11:34:07.509Z,4.45
2023-04-29T11:36:36.212Z,4.07
2023-04-29T11:39:05.103Z,3.30
2023-04-29T11:41:32.444Z,4.00
2023-04-29T11:44:01.357Z,3.85
2023-04-29T11:46:31.506Z,3.50
2023-04-29T11:49:00.249Z,3.90
2023-04-29T11:51:28.646Z,4.15
2023-04-29T11:53:58.023Z,3.50
2023-04-29T11:56:25.909Z,3.35
2023-04-29T11:59:01.357Z,2.97
2023-04-29T12:01:28.680Z,3.03
2023-04-29T12:04:02.610Z,2.90
2023-04-29T12:06:30.606Z,2.70
2023-04-29T12:09:00.648Z,3.00
2023-04-29T12:11:28.963Z,3.38
2023-04-29T12:13:57.558Z,3.72
2023-04-29T12:16:25.136Z,3.58
2023-04-29T12:18:53.438Z,3.10
2023-04-29T12:21:22.260Z,2.97
2023-04-29T12:23:49.185Z,3.30
2023-04-29T12:26:17.801Z,3.53
2023-04-29T12:28:44.812Z,2.72
2023-04-29T12:31:11.812Z,1.80
2023-04-29T12:33:38.851Z,1.98
2023-04-29T12:36:18.324Z,1.98
2023-04-29T12:38:46.901Z,2.95
2023-04-29T12:41:14.678Z,2.25
2023-04-29T12:43:42.577Z,2.38
2023-04-29T12:46:12.849Z,2.25
2023-04-29T12:48:43.504Z,3.03
2023-04-29T12:51:11.664Z,2.85
2023-04-29T12:53:39.223Z,2.97
2023-04-29T12:56:07.002Z,2.58
2023-04-29T12:58:37.030Z,2.17
2023-04-29T13:01:04.373Z,2.10
2023-04-29T13:03:33.239Z,2.45
2023-04-29T13:06:01.388Z,2.63
2023-04-29T13:08:28.425Z,2.22
2023-04-29T13:10:55.439Z,2.35
2023-04-29T13:13:22.453Z,2.38
2023-04-29T13:15:49.415Z,1.92
2023-04-29T13:18:16.759Z,2.00
2023-04-29T13:20:43.736Z,2.88
2023-04-29T13:23:12.236Z,2.20
2023-04-29T13:25:39.366Z,1.40
2023-04-29T13:28:07.389Z,1.50
2023-04-29T13:30:34.665Z,1.40
2023-04-29T13:33:09.906Z,2.00
2023-04-29T13:35:40.691Z,1.67
2023-04-29T13:38:10.426Z,2.20
2023-04-29T13:40:41.711Z,2.33
2023-04-29T13:43:13.832Z,2.35
2023-04-29T13:45:46.473Z,1.35
2023-04-29T13:48:37.420Z,1.92
2023-04-29T13:57:01.942Z,1.70
2023-04-29T14:01:55.159Z,2.08
2023-04-29T14:04:07.214Z,2.35
2023-04-29T14:06:34.858Z,2.15
2023-04-29T14:09:03.725Z,2.00
2023-04-29T14:11:31.197Z,2.08
2023-04-29T14:13:58.132Z,2.15
2023-04-29T14:16:25.383Z,2.47
2023-04-29T14:18:52.420Z,2.40
2023-04-29T14:21:22.434Z,2.47
2023-04-29T14:23:50.523Z,2.17
2023-04-29T14:26:28.046Z,2.75
2023-04-29T14:29:00.112Z,2.90
2023-04-29T14:31:30.021Z,2.13
2023-04-29T14:33:58.110Z,2.75
2023-04-29T14:36:26.724Z,2.33
2023-04-29T14:38:54.055Z,2.30
2023-04-29T14:41:23.916Z,3.10
2023-04-29T14:43:50.924Z,2.58
2023-04-29T14:46:17.971Z,2.90
2023-04-29T14:48:45.145Z,3.20
2023-04-29T14:51:12.245Z,2.75
2023-04-29T14:53:39.252Z,2.65
2023-04-29T14:56:07.981Z,3.58
2023-04-29T14:58:35.003Z,3.13
2023-04-29T15:01:02.069Z,2.80
2023-04-29T15:03:29.207Z,2.78
2023-04-29T15:05:56.325Z,3.50
2023-04-29T15:08:23.410Z,2.92
2023-04-29T15:10:50.720Z,2.55
2023-04-29T15:13:17.735Z,2.92
2023-04-29T15:15:44.783Z,2.80
2023-04-29T15:18:11.838Z,1.75
2023-04-29T15:20:38.937Z,3.03
2023-04-29T15:23:06.739Z,2.30
2023-04-29T15:25:34.709Z,1.85
2023-04-29T15:28:05.739Z,2.08
2023-04-29T15:30:33.188Z,3.13
2023-04-29T15:33:00.497Z,2.38
2023-04-29T15:35:27.816Z,2.80
2023-04-29T15:37:54.924Z,3.00
2023-04-29T15:40:22.013Z,3.05
2023-04-29T15:42:49.004Z,3.35
2023-04-29T15:45:16.956Z,2.55
2023-04-29T15:47:43.986Z,2.80
2023-04-29T15:50:11.233Z,2.85
2023-04-29T15:52:38.170Z,2.75
2023-04-29T15:55:08.812Z,2.55
2023-04-29T15:57:41.051Z,2.40
2023-04-29T16:00:09.620Z,2.85
2023-04-29T16:02:36.708Z,2.72
2023-04-29T16:05:03.968Z,2.50
2023-04-29T16:07:31.266Z,2.30
2023-04-29T16:09:58.288Z,2.20
2023-04-29T16:12:25.277Z,2.72
2023-04-29T16:14:52.471Z,2.60
2023-04-29T16:17:19.918Z,2.00
2023-04-29T16:19:48.201Z,2.30
2023-04-29T16:22:15.210Z,2.40
2023-04-29T16:24:42.510Z,2.25
2023-04-29T16:27:09.528Z,2.13
2023-04-29T16:29:36.626Z,1.83
2023-04-29T16:32:03.959Z,1.98
2023-04-29T16:34:31.027Z,2.22
2023-04-29T16:36:57.940Z,2.30
2023-04-29T16:39:24.909Z,2.60
2023-04-29T16:41:52.018Z,2.10
2023-04-29T16:44:19.185Z,2.15
2023-04-29T16:46:46.300Z,1.92
2023-04-29T16:49:14.271Z,1.50
2023-04-29T16:51:41.568Z,1.60
2023-04-29T16:54:08.534Z,2.28
2023-04-29T16:56:35.483Z,2.10
2023-04-29T16:59:02.468Z,1.73
2023-04-29T17:01:29.438Z,1.85
2023-04-29T17:03:56.787Z,1.77
2023-04-29T17:06:24.081Z,1.42
2023-04-29T17:08:51.843Z,1.40
2023-04-29T17:11:18.880Z,2.35
2023-04-29T17:13:46.398Z,1.77
2023-04-29T17:16:16.252Z,1.70
2023-04-29T17:18:43.326Z,1.90
2023-04-29T17:21:10.321Z,1.40
2023-04-29T17:23:37.847Z,1.20
2023-04-29T17:26:05.740Z,1.52
2023-04-29T17:28:33.822Z,1.67
2023-04-29T17:31:02.314Z,1.70
2023-04-29T17:33:34.598Z,1.60
2023-04-29T17:36:03.559Z,1.83
2023-04-29T17:38:34.884Z,2.25
2023-04-29T17:41:02.603Z,2.08
2023-04-29T17:43:32.431Z,1.80
2023-04-29T17:45:59.547Z,1.58
2023-04-29T17:48:26.606Z,2.65
2023-04-29T17:50:54.479Z,1.70
2023-04-29T17:53:21.394Z,2.13
2023-04-29T17:55:48.298Z,1.85
2023-04-29T17:58:15.401Z,2.38
2023-04-29T18:00:42.580Z,1.95
2023-04-29T18:03:09.869Z,1.65
2023-04-29T18:05:37.024Z,1.77
2023-04-29T18:08:04.328Z,1.75
2023-04-29T18:10:31.418Z,2.15
2023-04-29T18:12:58.444Z,2.13
2023-04-29T18:15:25.630Z,2.05
2023-04-29T18:17:54.253Z,1.88
2023-04-29T18:20:22.541Z,1.75
2023-04-29T18:22:50.553Z,2.10
2023-04-29T18:25:17.830Z,2.03
2023-04-29T18:27:45.215Z,2.47
2023-04-29T18:30:12.667Z,2.15
2023-04-29T18:32:39.957Z,1.77
2023-04-29T18:35:07.454Z,1.67
2023-04-29T18:37:34.676Z,2.08
2023-04-29T18:40:01.693Z,2.03
2023-04-29T18:42:28.649Z,1.88
2023-04-29T18:44:55.626Z,2.38
2023-04-29T18:47:22.806Z,1.90
2023-04-29T18:49:49.817Z,1.73
2023-04-29T18:52:17.186Z,1.77
2023-04-29T18:54:44.163Z,2.10
2023-04-29T18:57:11.497Z,1.83
2023-04-29T18:59:38.486Z,2.05
2023-04-29T19:02:06.274Z,2.67
2023-04-29T19:04:34.706Z,2.15
2023-04-29T19:07:02.007Z,2.38
2023-04-29T19:09:32.124Z,1.98
2023-04-29T19:12:03.477Z,2.08
2023-04-29T19:14:33.064Z,2.10
2023-04-29T19:17:00.452Z,3.10
2023-04-29T19:19:27.447Z,2.42
2023-04-29T19:21:54.425Z,3.03
2023-04-29T19:24:21.412Z,3.20
2023-04-29T19:26:48.360Z,2.63
2023-04-29T19:29:16.128Z,2.83
2023-04-29T19:31:43.839Z,3.33
2023-04-29T19:34:10.912Z,3.83
2023-04-29T19:36:38.337Z,3.40
2023-04-29T19:39:05.400Z,3.80
2023-04-29T19:41:34.710Z,3.63
2023-04-29T19:44:02.225Z,5.60
2023-04-29T19:46:29.235Z,4.15
2023-04-29T19:48:56.292Z,3.95
2023-04-29T19:51:23.287Z,4.78
2023-04-29T19:53:50.357Z,4.35
2023-04-29T19:56:19.313Z,4.47
2023-04-29T19:58:46.650Z,4.70
2023-04-29T20:01:13.698Z,5.35
2023-04-29T20:03:41.550Z,4.40
2023-04-29T20:06:10.482Z,5.47
2023-04-29T20:08:39.257Z,6.85
2023-04-29T20:11:06.611Z,4.43
2023-04-29T20:13:34.180Z,4.72
2023-04-29T20:16:01.306Z,4.18
2023-04-29T20:18:28.384Z,4.38
2023-04-29T20:20:56.019Z,5.18
2023-04-29T20:23:23.110Z,5.28
2023-04-29T20:25:50.722Z,5.88
2023-04-29T20:28:17.730Z,5.50
2023-04-29T20:30:45.130Z,5.85
2023-04-29T20:33:12.337Z,6.18
2023-04-29T20:35:39.468Z,6.32
2023-04-29T20:38:07.361Z,5.68
2023-04-29T20:40:34.984Z,5.03
2023-04-29T20:43:02.008Z,6.35
2023-04-29T20:45:29.246Z,7.03
2023-04-29T20:47:56.456Z,5.38
2023-04-29T20:50:23.677Z,6.63
2023-04-29T20:52:52.477Z,6.57
2023-04-29T20:55:19.639Z,6.13
2023-04-29T20:57:46.638Z,6.15
2023-04-29T21:00:14.398Z,6.63
2023-04-29T21:02:41.434Z,6.03
2023-04-29T21:05:10.278Z,5.97
2023-04-29T21:07:37.705Z,6.53
2023-04-29T21:10:05.709Z,6.57
2023-04-29T21:12:32.708Z,5.60
2023-04-29T21:14:59.709Z,6.35
2023-04-29T21:17:26.920Z,5.95
2023-04-29T21:19:54.265Z,6.78
2023-04-29T21:22:21.468Z,5.43
2023-04-29T21:24:48.484Z,4.38
2023-04-29T21:27:15.678Z,5.50
2023-04-29T21:29:42.720Z,5.45
2023-04-29T21:32:09.755Z,5.30
2023-04-29T21:34:37.044Z,5.10
2023-04-29T21:37:04.333Z,5.45
2023-04-29T21:39:32.362Z,5.43
2023-04-29T21:42:00.696Z,5.30
2023-04-29T21:44:27.908Z,4.57
2023-04-29T21:46:55.016Z,4.60
2023-04-29T21:49:22.066Z,4.50
2023-04-29T21:51:49.312Z,6.35
2023-04-29T21:54:16.320Z,5.32
2023-04-29T21:56:43.274Z,5.32
2023-04-29T21:59:10.300Z,4.40
2023-04-29T22:01:43.107Z,3.90
2023-04-29T22:04:10.958Z,4.50
2023-04-29T22:06:38.250Z,5.55
2023-04-29T22:09:07.246Z,5.55
2023-04-29T22:11:34.398Z,4.85
2023-04-29T22:14:04.907Z,5.05
2023-04-29T22:16:32.016Z,5.07
2023-04-29T22:18:59.131Z,5.43
2023-04-29T22:21:27.839Z,5.60
2023-04-29T22:23:55.810Z,6.60
2023-04-29T22:26:25.569Z,5.47
2023-04-29T22:28:53.019Z,5.60
2023-04-29T22:31:20.225Z,4.47
2023-04-29T22:33:47.338Z,5.13
2023-04-29T22:36:14.527Z,4.85
2023-04-29T22:38:41.524Z,4.70
2023-04-29T22:41:11.689Z,5.60
2023-04-29T22:43:38.889Z,5.57
2023-04-29T22:46:06.592Z,5.93
2023-04-29T22:48:33.672Z,5.75
2023-04-29T22:51:01.078Z,5.68
2023-04-29T22:53:28.382Z,5.20
2023-04-29T22:55:58.143Z,5.85
2023-04-29T22:58:26.355Z,5.63
2023-04-29T23:00:57.811Z,5.70
2023-04-29T23:03:25.406Z,5.70
2023-04-29T23:05:57.921Z,5.72
2023-04-29T23:08:26.142Z,5.30
2023-04-29T23:10:53.576Z,6.80
2023-04-29T23:13:20.913Z,5.25
2023-04-29T23:15:48.096Z,6.32
2023-04-29T23:18:15.564Z,6.82
2023-04-29T23:20:46.675Z,6.90
2023-04-29T23:23:14.375Z,6.25
2023-04-29T23:25:42.694Z,6.60
2023-04-29T23:28:09.691Z,7.00
2023-04-29T23:30:36.732Z,6.40
2023-04-29T23:33:04.003Z,6.68
2023-04-29T23:35:31.802Z,6.18
2023-04-29T23:37:59.124Z,5.50
2023-04-29T23:40:26.242Z,6.35
2023-04-29T23:42:53.218Z,6.88
2023-04-29T23:45:20.387Z,6.70
2023-04-29T23:47:47.462Z,7.43
2023-04-29T23:50:14.697Z,7.07
2023-04-29T23:52:41.823Z,7.43
2023-04-29T23:55:09.862Z,7.00
2023-04-29T23:57:36.828Z,6.70
